Time;durP1;ratioP1;P1;durP2;ratioP2;P2;SDS_P1;SDS_P2;PMS_P1;PMS_P2;Temp;Humidity;BMP_temperature;BMP_pressure;BME280_temperature;BME280_humidity;BME280_pressure;Samples;Min_cycle;Max_cycle;Signal;HPM_P1;HPM_P2
2023/03/18 00:02:00;;;;;;;13.80;8.00;;;;;;;14.11;60.77;100674.56;5080323;28;20024;-88
2023/03/18 00:04:26;;;;;;;14.88;7.88;;;;;;;14.08;61.09;100664.09;5087901;28;20030;-88
2023/03/18 00:06:51;;;;;;;12.90;8.80;;;;;;;14.09;60.92;100660.50;5065675;28;20142;-88
2023/03/18 00:09:16;;;;;;;17.48;9.52;;;;;;;14.09;61.00;100671.16;5086314;28;20032;-89
2023/03/18 00:11:41;;;;;;;13.15;8.02;;;;;;;14.09;61.20;100676.47;5061853;28;20039;-88
2023/03/18 00:14:08;;;;;;;11.88;8.15;;;;;;;14.04;61.21;100678.53;5060696;28;20039;-89
2023/03/18 00:16:34;;;;;;;14.00;8.10;;;;;;;13.92;61.52;100682.72;5065056;28;20032;-89
2023/03/18 00:19:01;;;;;;;14.35;7.60;;;;;;;13.86;62.00;100679.56;5066975;28;20518;-89
2023/03/18 00:21:28;;;;;;;13.48;7.50;;;;;;;13.86;61.63;100679.56;5067614;28;20379;-89
2023/03/18 00:23:55;;;;;;;13.77;7.80;;;;;;;13.81;62.05;100668.34;5078593;28;20024;-89
2023/03/18 00:26:22;;;;;;;13.65;6.93;;;;;;;13.86;61.77;100679.56;5078887;28;20028;-89
2023/03/18 00:28:47;;;;;;;15.15;8.02;;;;;;;13.82;61.89;100678.88;5088436;28;20524;-89
2023/03/18 00:31:12;;;;;;;13.82;7.75;;;;;;;13.86;61.79;100688.41;5084151;28;20024;-89
2023/03/18 00:33:39;;;;;;;14.35;8.05;;;;;;;13.85;62.42;100693.78;5087653;28;20035;-88
2023/03/18 00:36:08;;;;;;;11.63;7.22;;;;;;;13.78;62.64;100687.97;5075716;28;20165;-88
2023/03/18 00:38:34;;;;;;;14.48;7.72;;;;;;;13.73;62.60;100695.34;5085992;28;20407;-88
2023/03/18 00:41:03;;;;;;;11.65;7.45;;;;;;;13.74;62.54;100705.00;5080986;28;20039;-88
2023/03/18 00:43:32;;;;;;;9.25;6.45;;;;;;;13.58;63.03;100696.19;5086207;28;20041;-88
2023/03/18 00:45:59;;;;;;;14.98;7.25;;;;;;;13.71;62.49;100692.78;5086691;28;20058;-88
2023/03/18 00:48:25;;;;;;;11.88;6.97;;;;;;;13.72;62.66;100705.09;5084394;28;20089;-89
2023/03/18 00:50:50;;;;;;;11.02;7.72;;;;;;;13.72;63.06;100710.41;5080792;28;20043;-88
2023/03/18 00:53:16;;;;;;;14.43;7.15;;;;;;;13.78;62.69;100709.22;5068854;28;20036;-89
2023/03/18 00:55:42;;;;;;;12.57;7.15;;;;;;;13.73;62.46;100706.81;5088670;28;20080;-88
2023/03/18 00:58:09;;;;;;;15.32;7.95;;;;;;;13.73;62.65;100727.22;5090358;28;20020;-89
2023/03/18 01:00:40;;;;;;;11.52;7.35;;;;;;;13.64;62.80;100717.09;5068323;28;20474;-89
2023/03/18 01:03:06;;;;;;;11.93;7.72;;;;;;;13.65;63.31;100709.03;5088418;28;20047;-88
2023/03/18 01:05:33;;;;;;;12.27;7.93;;;;;;;13.66;63.12;100712.53;5091094;28;20034;-89
2023/03/18 01:07:58;;;;;;;11.75;7.70;;;;;;;13.52;63.75;100694.69;5073283;28;20027;-89
2023/03/18 01:10:26;;;;;;;10.70;7.85;;;;;;;13.51;64.32;100708.94;5072458;28;20387;-89
2023/03/18 01:12:52;;;;;;;11.80;7.13;;;;;;;13.47;63.65;100710.03;5090334;28;20031;-89
2023/03/18 01:15:19;;;;;;;15.63;8.02;;;;;;;13.41;64.78;100715.69;5079714;28;20040;-88
2023/03/18 01:17:45;;;;;;;13.05;8.25;;;;;;;13.47;64.34;100694.94;5069368;28;20479;-89
2023/03/18 01:20:12;;;;;;;14.30;8.32;;;;;;;13.37;65.58;100699.06;5088425;28;20086;-88
2023/03/18 01:22:41;;;;;;;15.60;8.15;;;;;;;13.48;65.71;100707.31;5070461;28;20035;-88
2023/03/18 01:25:08;;;;;;;18.98;8.80;;;;;;;13.53;66.22;100688.47;5091290;28;20055;-88
2023/03/18 01:27:34;;;;;;;13.38;8.60;;;;;;;13.45;67.29;100698.66;5091607;28;20024;-88
2023/03/18 01:29:59;;;;;;;17.02;10.00;;;;;;;13.36;68.21;100709.78;5092108;28;20390;-88
2023/03/18 01:32:25;;;;;;;17.25;9.65;;;;;;;13.27;69.51;100688.06;5091348;28;20501;-88
2023/03/18 01:34:50;;;;;;;22.27;10.40;;;;;;;13.15;70.56;100702.00;5072760;28;20058;-88
2023/03/18 01:37:16;;;;;;;19.38;9.55;;;;;;;13.12;71.33;100702.13;5074418;28;20035;-87
2023/03/18 01:39:41;;;;;;;19.23;10.25;;;;;;;13.09;71.88;100710.25;5073578;28;20039;-87
2023/03/18 01:42:06;;;;;;;18.00;9.80;;;;;;;12.98;72.40;100713.47;5071004;28;20031;-88
2023/03/18 01:44:32;;;;;;;18.60;9.85;;;;;;;12.70;74.61;100700.78;5073111;28;20433;-88
2023/03/18 01:46:57;;;;;;;16.27;9.55;;;;;;;12.70;75.32;100708.75;5082494;28;20035;-88
2023/03/18 01:49:35;;;;;;;21.85;11.50;;;;;;;12.64;75.78;100697.59;5089659;28;20035;-87
2023/03/18 01:52:17;;;;;;;22.10;11.95;;;;;;;12.82;75.32;100709.03;5060261;28;20033;-88
2023/03/18 01:54:48;;;;;;;20.23;9.75;;;;;;;12.75;76.59;100712.00;5065545;28;20479;-88
2023/03/18 01:57:16;;;;;;;19.42;12.27;;;;;;;12.60;77.28;100712.81;5067940;28;20526;-87
2023/03/18 01:59:42;;;;;;;20.15;12.10;;;;;;;12.57;77.56;100693.53;5072102;28;20475;-87
2023/03/18 02:02:10;;;;;;;19.75;11.25;;;;;;;12.62;77.34;100695.00;5071423;28;20020;-87
2023/03/18 02:04:42;;;;;;;19.58;11.63;;;;;;;12.62;77.25;100699.44;5090725;28;20039;-87
2023/03/18 02:07:17;;;;;;;23.02;12.23;;;;;;;12.61;77.19;100703.03;5090640;28;20107;-87
2023/03/18 02:09:43;;;;;;;23.98;12.10;;;;;;;12.62;77.53;100707.41;5073165;28;20479;-87
2023/03/18 02:12:12;;;;;;;20.92;12.50;;;;;;;12.59;76.77;100686.34;5088820;28;20028;-88
2023/03/18 02:14:38;;;;;;;18.63;11.60;;;;;;;12.61;77.01;100695.94;5087693;28;20024;-88
2023/03/18 02:17:09;;;;;;;19.05;12.00;;;;;;;12.67;77.51;100708.03;5080913;28;20395;-87
2023/03/18 02:19:49;;;;;;;19.47;11.93;;;;;;;12.68;77.07;100705.31;5089043;28;20027;-87
2023/03/18 02:22:33;;;;;;;22.13;12.95;;;;;;;12.59;77.63;100704.91;5086155;28;20281;-88
2023/03/18 02:25:17;;;;;;;21.80;12.32;;;;;;;12.67;76.47;100702.72;5072622;28;20034;-88
2023/03/18 02:27:46;;;;;;;21.35;12.18;;;;;;;12.61;77.09;100713.66;5086320;28;20024;-87
2023/03/18 02:30:19;;;;;;;23.15;12.68;;;;;;;12.60;78.28;100711.94;5086395;28;20024;-87
2023/03/18 02:32:47;;;;;;;21.67;11.90;;;;;;;12.59;78.59;100724.34;5069800;28;20032;-87
2023/03/18 02:35:12;;;;;;;22.02;12.38;;;;;;;12.55;78.89;100712.19;5087643;28;20404;-87
2023/03/18 02:37:38;;;;;;;21.95;13.00;;;;;;;12.48;79.62;100714.25;5089579;28;20026;-87
2023/03/18 02:40:18;;;;;;;21.05;13.18;;;;;;;12.41;80.00;100727.91;5071101;28;20055;-87
2023/03/18 02:42:46;;;;;;;21.83;13.90;;;;;;;12.44;80.16;100731.25;5069759;28;20024;-87
2023/03/18 02:45:48;;;;;;;23.10;13.52;;;;;;;12.42;79.26;100734.94;5071834;28;20582;-87
2023/03/18 02:48:18;;;;;;;26.10;14.82;;;;;;;12.49;79.16;100741.63;5070535;28;20383;-87
2023/03/18 02:50:44;;;;;;;26.02;14.80;;;;;;;12.38;80.67;100734.22;5072525;28;20020;-87
2023/03/18 02:53:13;;;;;;;21.65;14.73;;;;;;;12.39;79.84;100725.31;5064199;28;20172;-87
2023/03/18 02:55:39;;;;;;;23.60;14.98;;;;;;;12.46;79.92;100728.56;5081096;28;20070;-87
2023/03/18 02:58:04;;;;;;;23.23;14.73;;;;;;;12.33;80.81;100728.28;5068578;28;20173;-87
2023/03/18 03:00:30;;;;;;;25.02;16.23;;;;;;;12.27;81.00;100744.50;5066018;28;20546;-87
2023/03/18 03:02:55;;;;;;;25.30;15.07;;;;;;;12.29;80.81;100747.06;5070304;28;20024;-87
2023/03/18 03:05:20;;;;;;;24.80;14.60;;;;;;;12.24;81.03;100747.28;5086543;28;20117;-87
2023/03/18 03:07:46;;;;;;;25.55;15.13;;;;;;;12.23;81.77;100753.53;5073362;28;20379;-87
2023/03/18 03:10:12;;;;;;;25.63;14.50;;;;;;;12.20;81.22;100748.38;5089382;28;20311;-87
2023/03/18 03:12:38;;;;;;;27.52;15.88;;;;;;;12.19;81.94;100752.81;5089121;28;20028;-87
2023/03/18 03:15:06;;;;;;;24.45;15.52;;;;;;;12.15;82.79;100753.03;5086439;28;20036;-87
2023/03/18 03:17:32;;;;;;;27.23;15.40;;;;;;;12.14;82.30;100757.47;5065828;28;20035;-87
2023/03/18 03:19:58;;;;;;;21.27;12.88;;;;;;;12.23;82.11;100764.13;5074261;28;20028;-87
2023/03/18 03:22:23;;;;;;;24.92;13.88;;;;;;;12.23;82.17;100754.38;5069676;28;20735;-87
2023/03/18 03:24:49;;;;;;;21.70;12.70;;;;;;;12.27;81.83;100762.19;5090534;28;20071;-88
2023/03/18 03:27:14;;;;;;;24.25;13.93;;;;;;;12.23;82.33;100762.34;5089761;28;20479;-87
2023/03/18 03:29:39;;;;;;;21.77;13.30;;;;;;;12.23;82.15;100759.69;5091108;28;20154;-87
2023/03/18 03:32:05;;;;;;;22.25;13.90;;;;;;;12.28;81.83;100758.63;5071725;28;20111;-87
2023/03/18 03:34:31;;;;;;;25.17;14.43;;;;;;;12.31;81.56;100761.97;5071699;28;20035;-87
2023/03/18 03:36:56;;;;;;;24.70;15.23;;;;;;;12.30;81.95;100767.34;5088702;28;20028;-87
2023/03/18 03:39:22;;;;;;;23.00;14.23;;;;;;;12.30;81.48;100767.34;5074882;28;20384;-87
2023/03/18 03:41:47;;;;;;;23.85;13.57;;;;;;;12.31;81.32;100766.41;5072720;28;20536;-87
2023/03/18 03:44:13;;;;;;;19.23;13.85;;;;;;;12.31;81.16;100769.03;5070159;28;20032;-87
2023/03/18 03:46:39;;;;;;;27.38;14.50;;;;;;;12.29;81.61;100761.19;5086042;28;20387;-87
2023/03/18 03:49:05;;;;;;;26.08;15.38;;;;;;;12.30;82.01;100772.63;5083312;28;20024;-87
2023/03/18 03:51:31;;;;;;;31.77;15.00;;;;;;;12.23;82.25;100770.28;5086935;28;20035;-87
2023/03/18 03:53:56;;;;;;;26.60;14.07;;;;;;;12.23;81.65;100774.75;5087838;28;20840;-87
2023/03/18 03:56:21;;;;;;;26.80;15.88;;;;;;;12.36;81.93;100773.22;5086077;28;20079;-87
2023/03/18 03:58:47;;;;;;;28.63;15.13;;;;;;;12.36;81.58;100770.56;5088167;28;20069;-87
2023/03/18 04:01:12;;;;;;;23.73;14.80;;;;;;;12.27;82.21;100776.31;5083366;28;20527;-87
2023/03/18 04:03:37;;;;;;;30.88;14.98;;;;;;;12.14;83.04;100778.69;5071640;28;20042;-87
2023/03/18 04:06:03;;;;;;;27.00;15.20;;;;;;;12.00;82.51;100770.53;5064340;28;20032;-87
2023/03/18 04:08:28;;;;;;;25.40;15.43;;;;;;;12.07;83.50;100784.34;5069857;28;20073;-86
2023/03/18 04:10:54;;;;;;;24.65;15.00;;;;;;;11.97;83.69;100782.13;5070159;28;20024;-87
2023/03/18 04:13:19;;;;;;;24.10;15.73;;;;;;;12.00;82.85;100779.34;5067019;28;20472;-87
2023/03/18 04:15:46;;;;;;;25.25;16.42;;;;;;;11.93;84.39;100771.72;5067596;28;20422;-87
2023/03/18 04:18:13;;;;;;;26.52;14.65;;;;;;;11.98;83.75;100789.16;5084671;28;20020;-87
2023/03/18 04:20:39;;;;;;;27.90;14.77;;;;;;;12.19;82.90;100792.56;5070698;28;20028;-87
2023/03/18 04:23:05;;;;;;;24.90;15.68;;;;;;;12.17;83.26;100789.16;5068310;28;20039;-87
2023/03/18 04:25:30;;;;;;;25.67;16.95;;;;;;;12.15;82.51;100779.53;5074778;28;20107;-87
2023/03/18 04:27:56;;;;;;;27.20;15.57;;;;;;;12.18;82.58;100793.50;5087472;28;20028;-87
2023/03/18 04:30:24;;;;;;;27.52;16.48;;;;;;;12.02;83.80;100779.25;5071948;28;20020;-87
2023/03/18 04:32:50;;;;;;;27.60;16.15;;;;;;;12.14;82.70;100783.13;5071974;28;20483;-87
2023/03/18 04:35:16;;;;;;;25.90;16.83;;;;;;;12.21;82.29;100796.00;5088091;28;20035;-87
2023/03/18 04:37:43;;;;;;;26.73;16.00;;;;;;;12.18;81.58;100777.59;5074243;28;20020;-87
2023/03/18 04:40:10;;;;;;;30.50;18.05;;;;;;;12.19;83.09;100786.41;5091414;28;20093;-87
2023/03/18 04:42:36;;;;;;;27.20;18.13;;;;;;;12.21;82.89;100795.13;5071985;28;20044;-87
2023/03/18 04:45:04;;;;;;;26.48;17.92;;;;;;;12.17;82.27;100797.09;5071911;28;20067;-87
2023/03/18 04:47:31;;;;;;;28.17;16.52;;;;;;;12.12;82.33;100788.47;5090930;28;20464;-87
2023/03/18 04:49:56;;;;;;;30.70;17.88;;;;;;;12.08;83.38;100786.94;5089560;28;20024;-87
2023/03/18 04:52:23;;;;;;;31.80;18.20;;;;;;;12.15;82.75;100800.75;5076045;28;20032;-87
2023/03/18 04:54:48;;;;;;;32.75;20.33;;;;;;;12.09;83.46;100798.38;5089353;28;20081;-87
2023/03/18 04:57:17;;;;;;;26.17;17.30;;;;;;;12.17;83.09;100802.41;5073364;28;20383;-87
2023/03/18 04:59:43;;;;;;;27.25;17.67;;;;;;;12.20;83.22;100806.69;5071420;28;20039;-87
2023/03/18 05:02:08;;;;;;;28.02;16.45;;;;;;;12.12;83.06;100793.78;5084959;28;20107;-87
2023/03/18 05:04:34;;;;;;;30.63;18.17;;;;;;;12.01;83.42;100804.03;5086270;28;20037;-87
2023/03/18 05:07:00;;;;;;;29.80;17.98;;;;;;;12.13;83.65;100821.16;5089141;28;20139;-87
2023/03/18 05:09:26;;;;;;;26.77;17.02;;;;;;;12.15;83.11;100812.19;5074521;28;20110;-87
2023/03/18 05:11:51;;;;;;;25.15;16.38;;;;;;;12.16;82.89;100813.91;5067111;28;20029;-87
2023/03/18 05:14:17;;;;;;;25.17;15.57;;;;;;;12.11;83.50;100817.72;5068994;28;20042;-87
2023/03/18 05:16:42;;;;;;;27.80;17.13;;;;;;;12.12;83.57;100816.78;5087891;28;20072;-87
2023/03/18 05:19:08;;;;;;;23.25;16.02;;;;;;;12.11;84.07;100825.66;5088537;28;20470;-87
2023/03/18 05:21:34;;;;;;;25.33;15.32;;;;;;;12.16;83.49;100827.16;5071584;28;20032;-87
2023/03/18 05:24:00;;;;;;;25.60;15.20;;;;;;;12.13;83.50;100810.56;5091453;28;20115;-87
2023/03/18 05:26:26;;;;;;;27.33;15.93;;;;;;;12.14;83.96;100826.38;5083752;28;20130;-87
2023/03/18 05:28:51;;;;;;;27.50;16.50;;;;;;;12.16;83.45;100811.25;5070953;28;20036;-87
2023/03/18 05:31:17;;;;;;;22.58;14.40;;;;;;;12.13;82.67;100800.81;5092837;28;20026;-87
2023/03/18 05:33:42;;;;;;;27.92;15.55;;;;;;;12.17;82.34;100805.06;5092369;28;20032;-87
2023/03/18 05:36:08;;;;;;;24.38;14.68;;;;;;;12.11;82.51;100804.47;5079499;28;20467;-87
2023/03/18 05:38:33;;;;;;;27.25;14.63;;;;;;;12.10;82.90;100819.50;5072660;28;20039;-87
2023/03/18 05:40:58;;;;;;;24.05;14.25;;;;;;;11.99;82.50;100792.66;5091400;28;20077;-87
2023/03/18 05:43:25;;;;;;;25.27;15.55;;;;;;;12.09;82.45;100812.50;5073587;28;20032;-87
2023/03/18 05:45:50;;;;;;;26.95;14.77;;;;;;;12.09;82.18;100817.78;5088769;28;20028;-87
2023/03/18 05:48:16;;;;;;;21.85;13.65;;;;;;;12.07;81.60;100811.69;5084682;28;20396;-87
2023/03/18 05:50:42;;;;;;;23.40;13.88;;;;;;;12.09;81.55;100815.16;5090872;28;20395;-87
2023/03/18 05:53:08;;;;;;;25.92;15.30;;;;;;;12.06;82.13;100823.22;5068799;28;20016;-87
2023/03/18 05:55:34;;;;;;;22.10;14.82;;;;;;;12.10;81.77;100834.56;5072786;28;20048;-87
2023/03/18 05:58:00;;;;;;;28.70;16.60;;;;;;;12.00;82.55;100837.63;5073994;28;20032;-87
2023/03/18 06:00:27;;;;;;;23.48;16.35;;;;;;;12.08;82.35;100845.22;5089467;28;20063;-87
2023/03/18 06:02:53;;;;;;;27.20;15.85;;;;;;;12.08;82.30;100837.28;5071694;28;20154;-87
2023/03/18 06:05:19;;;;;;;24.83;16.27;;;;;;;12.07;82.32;100850.59;5070740;28;20534;-87
2023/03/18 06:07:45;;;;;;;24.95;15.10;;;;;;;12.11;81.63;100866.28;5088598;28;20491;-87
2023/03/18 06:10:11;;;;;;;25.65;15.05;;;;;;;12.08;81.92;100861.13;5086801;28;20020;-87
2023/03/18 06:12:37;;;;;;;25.70;15.55;;;;;;;12.03;82.31;100860.50;5087411;28;20387;-87
2023/03/18 06:15:05;;;;;;;25.38;15.43;;;;;;;11.96;82.29;100849.28;5085453;28;20431;-87
2023/03/18 06:17:31;;;;;;;25.00;14.88;;;;;;;11.95;82.12;100860.81;5069273;28;20028;-87
2023/03/18 06:19:57;;;;;;;23.35;14.80;;;;;;;11.92;82.08;100854.81;5091870;28;20035;-87
2023/03/18 06:22:23;;;;;;;25.83;15.73;;;;;;;11.87;82.50;100846.19;5062774;28;20108;-87
2023/03/18 06:24:48;;;;;;;26.10;13.68;;;;;;;11.89;81.91;100846.97;5088494;28;20095;-87
2023/03/18 06:27:14;;;;;;;20.60;12.95;;;;;;;11.84;82.00;100851.63;5088239;28;20040;-87
2023/03/18 06:29:40;;;;;;;23.77;14.27;;;;;;;11.87;82.68;100851.50;5084755;28;20049;-87
2023/03/18 06:32:06;;;;;;;22.55;13.35;;;;;;;11.84;82.29;100856.94;5069632;28;20032;-87
2023/03/18 06:34:34;;;;;;;25.92;14.50;;;;;;;11.75;83.13;100848.47;5069932;28;20509;-87
2023/03/18 06:36:59;;;;;;;19.88;12.57;;;;;;;11.81;82.04;100851.75;5062492;28;20016;-87
2023/03/18 06:39:27;;;;;;;23.08;14.75;;;;;;;11.71;82.65;100849.53;5086012;28;20031;-87
2023/03/18 06:41:53;;;;;;;22.98;13.38;;;;;;;11.74;82.40;100852.00;5071864;28;20402;-87
2023/03/18 06:44:19;;;;;;;22.00;15.07;;;;;;;11.70;82.92;100849.56;5086107;28;20027;-87
2023/03/18 06:46:45;;;;;;;25.95;15.95;;;;;;;11.79;82.81;100861.53;5069077;28;20077;-87
2023/03/18 06:49:11;;;;;;;24.23;15.15;;;;;;;11.83;82.61;100861.38;5089389;28;20383;-87
2023/03/18 06:51:36;;;;;;;21.83;14.57;;;;;;;11.83;82.43;100869.31;5083690;28;20027;-87
2023/03/18 06:54:02;;;;;;;19.27;13.27;;;;;;;11.89;82.27;100868.19;5086178;28;20102;-88
2023/03/18 06:56:27;;;;;;;23.95;15.75;;;;;;;11.92;82.46;100881.28;5068426;28;20105;-87
2023/03/18 06:58:53;;;;;;;21.27;12.82;;;;;;;11.99;82.25;100885.41;5083501;28;20522;-87
2023/03/18 07:01:19;;;;;;;23.85;14.48;;;;;;;11.99;82.13;100875.66;5084277;28;20084;-87
2023/03/18 07:03:45;;;;;;;24.08;14.98;;;;;;;12.00;82.34;100885.31;5087024;28;20020;-87
2023/03/18 07:06:10;;;;;;;24.38;15.93;;;;;;;12.11;82.01;100881.31;5068474;28;20024;-87
2023/03/18 07:08:35;;;;;;;25.25;16.27;;;;;;;12.11;82.37;100890.13;5065401;28;20024;-87
2023/03/18 07:11:02;;;;;;;25.00;14.77;;;;;;;12.08;82.29;100895.59;5086070;28;20032;-87
2023/03/18 07:13:28;;;;;;;23.10;16.23;;;;;;;12.03;82.35;100896.69;5085686;28;20501;-87
2023/03/18 07:15:55;;;;;;;23.27;14.55;;;;;;;12.18;81.50;100903.97;5082835;28;20028;-87
2023/03/18 07:18:21;;;;;;;20.05;13.95;;;;;;;12.17;81.62;100889.88;5089566;28;20035;-88
2023/03/18 07:20:47;;;;;;;28.27;14.00;;;;;;;12.22;81.57;100903.75;5089227;28;20072;-87
2023/03/18 07:23:12;;;;;;;23.60;15.63;;;;;;;12.19;81.27;100903.91;5070482;28;20024;-87
2023/03/18 07:25:37;;;;;;;21.52;13.57;;;;;;;12.30;81.09;100906.03;5088107;28;20441;-87
2023/03/18 07:28:04;;;;;;;21.42;14.60;;;;;;;12.41;80.72;100910.88;5072558;28;20028;-87
2023/03/18 07:30:30;;;;;;;22.13;13.40;;;;;;;12.31;80.32;100914.84;5090300;28;20390;-87
2023/03/18 07:32:55;;;;;;;20.88;13.68;;;;;;;12.36;80.66;100910.22;5074376;28;20119;-87
2023/03/18 07:35:24;;;;;;;24.23;14.15;;;;;;;12.52;80.08;100909.41;5087606;28;20023;-87
2023/03/18 07:37:49;;;;;;;22.48;13.68;;;;;;;12.59;79.31;100907.34;5076359;28;20523;-88
2023/03/18 07:40:15;;;;;;;20.85;14.48;;;;;;;12.48;79.97;100907.84;5088503;28;20150;-87
2023/03/18 07:42:40;;;;;;;21.55;13.27;;;;;;;12.58;80.03;100912.72;5088396;28;20051;-87
2023/03/18 07:45:06;;;;;;;19.02;12.50;;;;;;;12.67;78.88;100915.78;5070265;28;20062;-87
2023/03/18 07:47:35;;;;;;;21.80;13.25;;;;;;;12.88;78.20;100921.88;5084715;28;20031;-87
2023/03/18 07:50:01;;;;;;;19.13;13.85;;;;;;;12.71;78.69;100920.00;5086589;28;20059;-87
2023/03/18 07:52:26;;;;;;;18.27;12.05;;;;;;;12.95;77.69;100928.56;5083195;28;20067;-87
2023/03/18 07:54:52;;;;;;;19.75;14.25;;;;;;;13.05;77.27;100936.94;5069702;28;20047;-87
2023/03/18 07:57:17;;;;;;;20.23;12.98;;;;;;;13.12;76.74;100938.38;5067873;28;20012;-87
2023/03/18 07:59:43;;;;;;;21.40;13.18;;;;;;;13.18;76.89;100940.72;5089552;28;20484;-87
2023/03/18 08:02:14;;;;;;;20.30;13.00;;;;;;;13.23;76.44;100940.53;5069011;28;20047;-87
2023/03/18 08:04:41;;;;;;;21.70;12.37;;;;;;;13.40;76.11;100945.88;5066926;28;20022;-87
2023/03/18 08:07:07;;;;;;;16.83;12.13;;;;;;;13.53;75.23;100931.03;5064507;28;20055;-88
2023/03/18 08:09:32;;;;;;;17.45;13.70;;;;;;;13.55;74.61;100940.72;5089036;28;20531;-87
2023/03/18 08:11:58;;;;;;;17.08;11.48;;;;;;;13.75;73.43;100929.91;5086595;28;20031;-87
2023/03/18 08:14:23;;;;;;;16.92;12.07;;;;;;;13.84;73.48;100921.47;5085460;28;20024;-87
2023/03/18 08:16:51;;;;;;;15.90;11.38;;;;;;;14.13;72.12;100919.06;5067832;28;20112;-86
2023/03/18 08:19:16;;;;;;;14.65;10.50;;;;;;;14.45;71.90;100919.97;5087153;28;20551;-87
2023/03/18 08:21:42;;;;;;;15.15;10.45;;;;;;;14.59;70.35;100917.44;5087070;28;20119;-87
2023/03/18 08:24:08;;;;;;;12.93;9.10;;;;;;;14.45;69.78;100917.31;5087835;28;20103;-87
2023/03/18 08:26:34;;;;;;;16.67;10.95;;;;;;;14.80;70.01;100908.25;5085014;28;20107;-87
2023/03/18 08:28:59;;;;;;;13.00;9.63;;;;;;;15.18;68.40;100923.84;5070421;28;20157;-87
2023/03/18 08:31:25;;;;;;;12.80;9.52;;;;;;;15.29;68.02;100920.53;5083480;28;20020;-87
2023/03/18 08:33:52;;;;;;;13.75;9.32;;;;;;;15.74;66.16;100932.97;5060603;28;20024;-87
2023/03/18 08:36:18;;;;;;;12.77;8.75;;;;;;;15.68;66.51;100927.19;5086212;28;20131;-87
2023/03/18 08:38:44;;;;;;;11.90;8.55;;;;;;;15.98;64.94;100935.09;5089802;28;20083;-87
2023/03/18 08:41:09;;;;;;;12.23;8.65;;;;;;;15.97;64.17;100928.06;5070939;28;20043;-87
2023/03/18 08:43:34;;;;;;;12.80;8.02;;;;;;;16.32;63.60;100934.75;5089537;28;20103;-87
2023/03/18 08:46:00;;;;;;;13.63;9.40;;;;;;;16.06;63.94;100933.69;5091606;28;20467;-87
2023/03/18 08:48:26;;;;;;;12.00;8.25;;;;;;;16.43;63.99;100941.22;5089298;28;20028;-87
2023/03/18 08:50:51;;;;;;;12.27;8.57;;;;;;;16.19;62.59;100944.47;5089845;28;20483;-87
2023/03/18 08:53:18;;;;;;;11.60;8.05;;;;;;;16.15;63.46;100944.75;5085817;28;20036;-87
2023/03/18 08:55:45;;;;;;;10.05;7.05;;;;;;;16.41;62.80;100945.78;5084893;28;20106;-87
2023/03/18 08:58:10;;;;;;;8.50;7.38;;;;;;;16.90;62.08;100946.22;5085393;28;20479;-88
2023/03/18 09:00:38;;;;;;;9.73;7.65;;;;;;;17.15;61.66;100933.91;5091602;28;20032;-87
2023/03/18 09:03:04;;;;;;;9.68;7.07;;;;;;;17.19;60.74;100936.28;5088581;28;20053;-87
2023/03/18 09:05:30;;;;;;;10.80;7.10;;;;;;;16.99;59.51;100937.59;5072669;28;20020;-87
2023/03/18 09:07:57;;;;;;;9.48;7.22;;;;;;;17.33;60.36;100938.03;5084148;28;20036;-87
2023/03/18 09:10:23;;;;;;;9.93;6.60;;;;;;;18.02;58.95;100939.56;5068397;28;20168;-88
2023/03/18 09:12:48;;;;;;;9.60;7.00;;;;;;;18.25;56.92;100932.59;5062317;28;20584;-86
2023/03/18 09:15:14;;;;;;;9.32;6.82;;;;;;;18.73;56.57;100937.25;5093646;28;20455;-86
2023/03/18 09:17:40;;;;;;;7.65;5.90;;;;;;;18.91;56.29;100940.41;5089414;28;20286;-87
2023/03/18 09:20:08;;;;;;;9.55;6.72;;;;;;;19.36;53.34;100939.69;5093772;28;20498;-88
2023/03/18 09:22:34;;;;;;;10.18;5.78;;;;;;;20.00;51.89;100938.41;5092235;28;20021;-87
2023/03/18 09:25:00;;;;;;;9.13;5.65;;;;;;;20.04;50.17;100946.09;5073307;28;20425;-87
2023/03/18 09:27:26;;;;;;;7.50;5.47;;;;;;;18.92;52.47;100948.34;5091814;28;20103;-87
2023/03/18 09:29:51;;;;;;;10.93;6.78;;;;;;;18.88;53.56;100944.16;5092688;28;20035;-87
2023/03/18 09:32:16;;;;;;;7.80;5.70;;;;;;;19.13;52.42;100939.69;5091651;28;20083;-88
2023/03/18 09:34:43;;;;;;;10.82;6.53;;;;;;;19.50;51.98;100946.69;5072753;28;20118;-88
2023/03/18 09:37:09;;;;;;;9.13;6.35;;;;;;;19.96;50.73;100951.22;5074680;28;20529;-88
2023/03/18 09:39:36;;;;;;;8.55;6.65;;;;;;;20.42;49.40;100952.09;5091796;28;20035;-89
2023/03/18 09:42:23;;;;;;;7.78;5.45;;;;;;;21.46;49.09;100946.34;5093366;28;20042;-88
2023/03/18 09:44:53;;;;;;;8.00;5.25;;;;;;;20.56;47.85;100947.41;5080660;28;20107;-89
2023/03/18 09:47:51;;;;;;;6.72;5.10;;;;;;;20.67;50.21;100946.53;5073402;28;20487;-89
2023/03/18 09:50:40;;;;;;;6.32;4.50;;;;;;;20.64;48.30;100936.84;5068723;28;20587;-88
2023/03/18 09:53:11;;;;;;;8.65;5.05;;;;;;;20.98;48.15;100947.53;5065993;28;20337;-88
2023/03/18 09:55:47;;;;;;;7.65;4.88;;;;;;;20.62;47.95;100948.72;5091662;28;20076;-88
2023/03/18 09:58:23;;;;;;;9.63;4.82;;;;;;;20.53;48.13;100950.31;5073574;28;20089;-88
2023/03/18 10:00:52;;;;;;;6.20;3.83;;;;;;;20.51;48.50;100944.19;5091376;28;20050;-88
2023/03/18 10:03:38;;;;;;;8.07;4.00;;;;;;;22.31;44.52;100948.88;5092999;28;20012;-88
2023/03/18 10:06:21;;;;;;;4.93;3.75;;;;;;;23.10;44.86;100935.53;5093525;28;20438;-89
2023/03/18 10:09:01;;;;;;;5.93;3.50;;;;;;;24.30;41.24;100947.63;5090275;28;20424;-88
2023/03/18 10:11:34;;;;;;;4.05;3.60;;;;;;;24.40;37.62;100940.34;5083971;28;20490;-88
2023/03/18 10:14:27;;;;;;;6.00;3.60;;;;;;;24.07;42.09;100947.13;5063910;28;20024;-88
2023/03/18 10:16:58;;;;;;;3.60;2.70;;;;;;;23.65;39.73;100952.88;5089730;28;20097;-89
2023/03/18 10:19:24;;;;;;;4.45;3.67;;;;;;;22.76;41.95;100941.25;5085836;28;20046;-90
2023/03/18 10:22:03;;;;;;;5.35;3.22;;;;;;;23.58;40.27;100943.63;5093126;28;20447;-89
2023/03/18 10:24:41;;;;;;;6.65;2.60;;;;;;;23.98;39.01;100945.31;5092110;28;20031;-89
2023/03/18 10:27:21;;;;;;;4.38;2.88;;;;;;;24.49;39.63;100938.63;5080127;28;20468;-89
2023/03/18 10:30:05;;;;;;;4.78;2.90;;;;;;;24.55;36.73;100942.56;5093231;28;20098;-89
2023/03/18 10:32:34;;;;;;;5.70;2.80;;;;;;;25.55;36.80;100944.31;5091729;28;20050;-90
2023/03/18 10:35:18;;;;;;;4.85;2.90;;;;;;;26.13;35.79;100943.78;5091285;28;20419;-89
2023/03/18 10:37:56;;;;;;;5.03;3.58;;;;;;;23.51;39.95;100945.19;5089915;28;20593;-89
2023/03/18 10:40:23;;;;;;;5.53;3.38;;;;;;;22.74;39.84;100942.38;5088706;28;20058;-89
2023/03/18 10:42:52;;;;;;;3.72;2.50;;;;;;;22.56;41.61;100939.47;5087231;28;20466;-87
2023/03/18 10:45:27;;;;;;;4.60;2.60;;;;;;;21.42;42.36;100945.72;5070997;28;20032;-89
2023/03/18 10:48:19;;;;;;;6.28;2.88;;;;;;;22.17;40.50;100943.84;5069260;28;20038;-89
2023/03/18 10:51:30;;;;;;;6.00;2.95;;;;;;;22.94;39.46;100943.28;5060655;28;20056;-88
2023/03/18 10:54:10;;;;;;;4.40;2.83;;;;;;;23.58;39.18;100940.91;5065219;28;20031;-88
2023/03/18 10:56:36;;;;;;;6.50;2.58;;;;;;;23.90;39.04;100935.22;5088902;28;20093;-88
2023/03/18 10:59:10;;;;;;;4.68;2.22;;;;;;;24.17;37.32;100930.88;5068973;28;20028;-88
2023/03/18 11:01:38;;;;;;;3.58;2.33;;;;;;;22.41;40.27;100934.47;5087761;28;20487;-88
2023/03/18 11:04:05;;;;;;;5.00;2.50;;;;;;;20.71;41.34;100941.75;5088245;28;20042;-88
2023/03/18 11:06:50;;;;;;;5.15;2.55;;;;;;;19.48;45.04;100935.19;5087245;28;20106;-88
2023/03/18 11:09:18;;;;;;;4.20;2.50;;;;;;;19.14;47.08;100928.84;5067516;28;20399;-88
2023/03/18 11:11:56;;;;;;;4.35;2.50;;;;;;;19.14;48.84;100930.69;5085991;28;20024;-89
2023/03/18 11:14:27;;;;;;;2.65;1.85;;;;;;;19.04;47.77;100931.38;5081359;28;20035;-89
2023/03/18 11:17:04;;;;;;;4.35;1.67;;;;;;;18.93;47.70;100938.47;5086809;28;20028;-89
2023/03/18 11:19:38;;;;;;;5.85;2.00;;;;;;;19.07;46.59;100930.25;5088582;28;20027;-90